Time;durP1;ratioP1;P1;durP2;ratioP2;P2;SDS_P1;SDS_P2;PMS_P1;PMS_P2;Temp;Humidity;BMP_temperature;BMP_pressure;BME280_temperature;BME280_humidity;BME280_pressure;Samples;Min_cycle;Max_cycle;Signal;HPM_P1;HPM_P2
2023/08/03 00:01:45;;;;;;;1.57;0.90;;;17.50;98.20;;;;;;5034825;28;20552;-80
2023/08/03 00:04:12;;;;;;;1.50;1.00;;;17.40;98.20;;;;;;5047760;28;20478;-81
2023/08/03 00:06:38;;;;;;;1.57;1.00;;;17.40;98.20;;;;;;5037968;28;20502;-81
2023/08/03 00:09:05;;;;;;;1.50;1.00;;;17.40;98.20;;;;;;5049910;28;20462;-82
2023/08/03 00:11:32;;;;;;;1.50;0.90;;;17.40;98.20;;;;;;5036004;28;20558;-82
2023/08/03 00:13:59;;;;;;;1.57;1.00;;;17.40;98.20;;;;;;5048783;28;20478;-81
2023/08/03 00:16:27;;;;;;;1.53;0.90;;;17.40;98.20;;;;;;5035964;28;20483;-82
2023/08/03 00:18:54;;;;;;;1.60;1.10;;;17.40;98.20;;;;;;5045007;28;20466;-84
2023/08/03 00:21:20;;;;;;;1.50;0.90;;;17.50;98.20;;;;;;5040949;28;20485;-81
2023/08/03 00:23:47;;;;;;;1.50;0.90;;;17.50;98.20;;;;;;5051837;28;20988;-81
2023/08/03 00:26:14;;;;;;;1.50;0.90;;;17.50;98.20;;;;;;5032179;28;20474;-80
2023/08/03 00:28:42;;;;;;;1.53;0.90;;;17.50;98.20;;;;;;5040410;28;20962;-81
2023/08/03 00:31:09;;;;;;;1.53;1.00;;;17.60;98.20;;;;;;5042692;28;20492;-80
2023/08/03 00:33:36;;;;;;;1.57;0.90;;;17.50;98.20;;;;;;5053778;28;20553;-79
2023/08/03 00:36:03;;;;;;;1.50;0.90;;;17.60;98.20;;;;;;5029978;28;20995;-82
2023/08/03 00:38:30;;;;;;;1.50;0.90;;;17.60;98.20;;;;;;5048971;28;20623;-82
2023/08/03 00:40:57;;;;;;;1.50;1.00;;;17.60;98.20;;;;;;5041029;28;20462;-83
2023/08/03 00:43:23;;;;;;;1.53;0.90;;;17.60;98.20;;;;;;5047066;28;20474;-82
2023/08/03 00:45:50;;;;;;;1.60;1.00;;;17.60;98.20;;;;;;5038193;28;20474;-80
2023/08/03 00:48:19;;;;;;;1.53;1.00;;;17.60;98.20;;;;;;5052631;28;20467;-81
2023/08/03 00:50:47;;;;;;;1.53;1.00;;;17.60;98.20;;;;;;5053029;28;20462;-83
2023/08/03 00:53:14;;;;;;;1.50;0.90;;;17.60;98.20;;;;;;5051030;28;20910;-82
2023/08/03 00:55:40;;;;;;;1.50;1.00;;;17.60;98.20;;;;;;5040600;28;20487;-81
2023/08/03 00:58:07;;;;;;;1.57;1.00;;;17.60;98.20;;;;;;5031202;28;20492;-81
2023/08/03 01:00:36;;;;;;;1.53;1.00;;;17.60;98.20;;;;;;5048544;28;20469;-82
2023/08/03 01:03:03;;;;;;;1.53;1.00;;;17.60;98.20;;;;;;5035510;28;20485;-82
2023/08/03 01:05:32;;;;;;;1.53;0.90;;;17.60;98.20;;;;;;5052693;28;20489;-81
2023/08/03 01:08:00;;;;;;;1.50;1.00;;;17.60;98.20;;;;;;5041620;28;20495;-81
2023/08/03 01:10:28;;;;;;;1.50;0.90;;;17.60;98.20;;;;;;5043111;28;20527;-80
2023/08/03 01:12:56;;;;;;;1.50;0.90;;;17.70;98.20;;;;;;5032032;28;20483;-83
2023/08/03 01:15:22;;;;;;;1.53;0.90;;;17.70;98.20;;;;;;5045219;28;20478;-80
2023/08/03 01:17:49;;;;;;;1.53;1.00;;;17.60;98.20;;;;;;5037228;28;20501;-82
2023/08/03 01:20:19;;;;;;;1.57;0.90;;;17.60;98.20;;;;;;5051016;28;20618;-81
2023/08/03 01:22:47;;;;;;;1.50;1.00;;;17.60;98.20;;;;;;5032225;28;20485;-81
2023/08/03 01:25:14;;;;;;;1.50;0.90;;;17.60;98.20;;;;;;5042566;28;20486;-81
2023/08/03 01:27:45;;;;;;;1.50;0.90;;;17.60;98.20;;;;;;5034098;28;20484;-82
2023/08/03 01:30:12;;;;;;;1.53;1.00;;;17.60;98.20;;;;;;5048890;28;20462;-81
2023/08/03 01:32:39;;;;;;;1.50;0.90;;;17.60;98.20;;;;;;5035422;28;20481;-81
2023/08/03 01:35:07;;;;;;;1.50;0.90;;;17.60;98.20;;;;;;5050591;28;20866;-82
2023/08/03 01:37:35;;;;;;;1.50;1.00;;;17.60;98.20;;;;;;5025578;28;20491;-82
2023/08/03 01:40:04;;;;;;;1.50;0.90;;;17.60;98.20;;;;;;5053511;28;20485;-83
2023/08/03 01:42:30;;;;;;;1.50;1.00;;;17.60;98.20;;;;;;5035761;28;20482;-81
2023/08/03 01:44:57;;;;;;;1.50;0.90;;;17.60;98.20;;;;;;5041256;28;20788;-82
2023/08/03 01:47:24;;;;;;;1.53;1.00;;;17.60;98.20;;;;;;5036725;28;20482;-83
2023/08/03 01:49:51;;;;;;;1.50;1.00;;;17.60;98.20;;;;;;5039295;28;20474;-84
2023/08/03 01:52:18;;;;;;;1.50;1.00;;;17.60;98.20;;;;;;5037227;28;20561;-84
2023/08/03 01:54:44;;;;;;;1.50;0.90;;;17.60;98.20;;;;;;5038836;28;20487;-83
2023/08/03 01:57:14;;;;;;;1.50;0.90;;;17.60;98.20;;;;;;5038833;28;20883;-84
2023/08/03 01:59:40;;;;;;;1.57;1.00;;;17.60;98.20;;;;;;5042751;28;20490;-83
2023/08/03 02:02:07;;;;;;;1.53;0.90;;;17.60;98.20;;;;;;5039034;28;20497;-79
2023/08/03 02:04:34;;;;;;;1.50;0.90;;;17.60;98.20;;;;;;5049416;28;20483;-81
2023/08/03 02:07:08;;;;;;;1.50;0.90;;;17.60;98.20;;;;;;5042860;28;20474;-81
2023/08/03 02:09:34;;;;;;;1.50;0.90;;;17.50;98.20;;;;;;5039338;28;20474;-80
2023/08/03 02:12:01;;;;;;;1.50;0.90;;;17.50;98.20;;;;;;5044575;28;20477;-81
2023/08/03 02:14:29;;;;;;;1.57;0.90;;;17.50;98.20;;;;;;5047515;28;20669;-82
2023/08/03 02:16:56;;;;;;;1.50;0.90;;;17.50;98.20;;;;;;5039517;28;20485;-82
2023/08/03 02:19:23;;;;;;;1.50;0.90;;;17.50;98.20;;;;;;5048871;28;20458;-80
2023/08/03 02:21:49;;;;;;;1.53;0.90;;;17.50;98.20;;;;;;5036704;28;20565;-81
2023/08/03 02:24:16;;;;;;;1.53;0.90;;;17.50;98.20;;;;;;5040996;28;20852;-80
2023/08/03 02:26:43;;;;;;;1.53;1.00;;;17.50;98.20;;;;;;5025641;28;20481;-81
2023/08/03 02:29:10;;;;;;;1.53;0.90;;;17.50;98.20;;;;;;5050808;28;20523;-82
2023/08/03 02:31:38;;;;;;;1.50;1.00;;;17.50;98.20;;;;;;5039398;28;20506;-80
2023/08/03 02:34:05;;;;;;;1.53;1.00;;;17.50;98.20;;;;;;5047961;28;20482;-80
2023/08/03 02:36:31;;;;;;;1.50;0.90;;;17.50;98.20;;;;;;5035693;28;20478;-79
2023/08/03 02:38:58;;;;;;;1.53;1.00;;;17.50;98.20;;;;;;5051924;28;20752;-81
2023/08/03 02:41:25;;;;;;;1.50;0.93;;;17.50;98.20;;;;;;5032356;28;20477;-81
2023/08/03 02:43:52;;;;;;;1.57;1.00;;;17.50;98.20;;;;;;5044698;28;20479;-79
2023/08/03 02:46:18;;;;;;;1.50;0.90;;;17.50;98.20;;;;;;5029916;28;21139;-80
2023/08/03 02:48:46;;;;;;;1.50;0.97;;;17.60;98.20;;;;;;5049496;28;20546;-82
2023/08/03 02:51:13;;;;;;;1.50;0.90;;;17.50;98.20;;;;;;5031727;28;20906;-81
2023/08/03 02:53:40;;;;;;;1.50;0.90;;;17.50;98.20;;;;;;5046631;28;20708;-82
2023/08/03 02:56:07;;;;;;;1.50;0.90;;;17.50;98.20;;;;;;5031563;28;20475;-82
2023/08/03 02:58:33;;;;;;;1.53;1.00;;;17.50;98.20;;;;;;5048749;28;20470;-83
2023/08/03 03:01:04;;;;;;;1.57;1.00;;;17.50;98.20;;;;;;5031664;28;20508;-82
2023/08/03 03:03:31;;;;;;;1.50;0.90;;;17.50;98.20;;;;;;5047042;28;20551;-79
2023/08/03 03:05:59;;;;;;;1.50;1.00;;;17.50;98.20;;;;;;5030034;28;20462;-83
2023/08/03 03:08:26;;;;;;;1.50;0.90;;;17.40;98.20;;;;;;5049636;28;20486;-81
2023/08/03 03:10:53;;;;;;;1.50;1.00;;;17.40;98.20;;;;;;5018621;28;20466;-82
2023/08/03 03:13:20;;;;;;;1.57;1.00;;;17.40;98.20;;;;;;5045160;28;20463;-80
2023/08/03 03:15:46;;;;;;;1.57;0.90;;;17.40;98.20;;;;;;5039418;28;20463;-82
2023/08/03 03:18:13;;;;;;;1.50;0.90;;;17.40;98.20;;;;;;5052740;28;20555;-80
2023/08/03 03:20:40;;;;;;;1.50;1.00;;;17.40;98.20;;;;;;5034927;28;20473;-81
2023/08/03 03:23:08;;;;;;;1.50;0.90;;;17.40;98.20;;;;;;5043235;28;20995;-82
2023/08/03 03:25:35;;;;;;;1.50;1.00;;;17.40;98.20;;;;;;5037352;28;20484;-82
2023/08/03 03:28:04;;;;;;;1.53;1.00;;;17.30;98.20;;;;;;5044853;28;20484;-81
2023/08/03 03:30:31;;;;;;;1.50;0.97;;;17.30;98.20;;;;;;5038436;28;20459;-83
2023/08/03 03:32:58;;;;;;;1.57;1.00;;;17.30;98.20;;;;;;5041846;28;20477;-82
2023/08/03 03:35:24;;;;;;;1.53;0.90;;;17.30;98.20;;;;;;5038251;28;20478;-84
2023/08/03 03:37:51;;;;;;;1.50;0.93;;;17.30;98.20;;;;;;5046269;28;20552;-81
2023/08/03 03:40:19;;;;;;;1.50;1.00;;;17.30;98.20;;;;;;5037068;28;20846;-81
2023/08/03 03:42:46;;;;;;;1.53;0.90;;;17.30;98.20;;;;;;5033398;28;20478;-81
2023/08/03 03:45:13;;;;;;;1.50;1.00;;;17.30;98.20;;;;;;5031446;28;20575;-80
2023/08/03 03:47:40;;;;;;;1.53;1.00;;;17.20;98.20;;;;;;5042263;28;20518;-82
2023/08/03 03:50:07;;;;;;;1.50;1.00;;;17.20;98.20;;;;;;5040891;28;20470;-82
2023/08/03 03:52:34;;;;;;;1.50;0.90;;;17.30;98.20;;;;;;5042225;28;20482;-81
2023/08/03 03:55:00;;;;;;;1.50;0.90;;;17.30;98.20;;;;;;5042734;28;20497;-84
2023/08/03 03:57:29;;;;;;;1.50;0.90;;;17.30;98.20;;;;;;5044753;28;20516;-82
2023/08/03 04:00:05;;;;;;;1.50;1.00;;;17.30;98.20;;;;;;5053539;23;20590;-78
2023/08/03 04:02:31;;;;;;;1.53;0.90;;;17.30;98.20;;;;;;5021184;28;21114;-79
2023/08/03 04:04:58;;;;;;;1.50;0.93;;;17.30;98.20;;;;;;5032718;28;20474;-79
2023/08/03 04:07:25;;;;;;;1.50;1.00;;;17.30;98.20;;;;;;5023711;28;20477;-78
2023/08/03 04:09:52;;;;;;;1.53;0.90;;;17.30;98.20;;;;;;5029762;28;20494;-79
2023/08/03 04:12:18;;;;;;;1.50;1.10;;;17.30;98.20;;;;;;5024572;28;20487;-79
2023/08/03 04:14:46;;;;;;;1.50;0.90;;;17.30;98.20;;;;;;5034540;28;20470;-78
2023/08/03 04:17:13;;;;;;;1.53;0.90;;;17.30;98.20;;;;;;5022570;28;20490;-79
2023/08/03 04:19:49;;;;;;;1.50;0.90;;;17.40;98.20;;;;;;5034011;28;20487;-78
2023/08/03 04:22:15;;;;;;;1.50;0.97;;;17.40;98.20;;;;;;5026424;28;20474;-80
2023/08/03 04:24:42;;;;;;;1.50;0.90;;;17.30;98.20;;;;;;5033308;28;20844;-80
2023/08/03 04:27:09;;;;;;;1.50;1.00;;;17.40;98.20;;;;;;5026143;28;20485;-81
2023/08/03 04:29:44;;;;;;;1.50;0.90;;;17.40;98.20;;;;;;5032764;28;21000;-80
2023/08/03 04:32:31;;;;;;;1.50;0.90;;;17.40;98.20;;;;;;5024943;28;21026;-79
2023/08/03 04:35:10;;;;;;;1.50;0.90;;;17.40;98.20;;;;;;5035724;28;20455;-80
2023/08/03 04:37:36;;;;;;;1.50;0.90;;;17.40;98.20;;;;;;5025338;28;20490;-80
2023/08/03 04:40:03;;;;;;;1.50;0.90;;;17.40;98.20;;;;;;5035416;28;20487;-78
2023/08/03 04:42:30;;;;;;;1.53;0.90;;;17.40;98.20;;;;;;5093964;23;20262;-84
2023/08/03 04:44:57;;;;;;;1.50;1.00;;;17.40;98.20;;;;;;5039896;28;20471;-84
2023/08/03 04:47:25;;;;;;;1.57;1.00;;;17.50;98.20;;;;;;5032919;28;20497;-84
2023/08/03 04:49:52;;;;;;;1.53;1.00;;;17.50;98.20;;;;;;5040215;28;20482;-84
2023/08/03 04:52:21;;;;;;;1.53;0.90;;;17.50;98.20;;;;;;5039615;28;20921;-83
2023/08/03 04:54:48;;;;;;;1.50;0.90;;;17.50;98.20;;;;;;5046525;28;20483;-82
2023/08/03 04:57:15;;;;;;;1.50;1.00;;;17.50;98.20;;;;;;5035711;28;20491;-79
2023/08/03 04:59:42;;;;;;;1.50;0.90;;;17.60;98.20;;;;;;5042906;28;20540;-83
2023/08/03 05:02:09;;;;;;;1.53;1.00;;;17.60;98.20;;;;;;5032791;28;20479;-81
2023/08/03 05:04:37;;;;;;;1.53;0.90;;;17.60;98.20;;;;;;5043857;28;20548;-82
2023/08/03 05:07:05;;;;;;;1.50;1.00;;;17.60;98.20;;;;;;5036776;28;20467;-82
2023/08/03 05:09:31;;;;;;;1.50;0.90;;;17.70;98.20;;;;;;5046752;28;20501;-83
2023/08/03 05:11:58;;;;;;;1.53;0.90;;;17.70;98.20;;;;;;5038790;28;21024;-82
2023/08/03 05:14:25;;;;;;;1.50;0.90;;;17.70;98.20;;;;;;5046554;28;20461;-82
2023/08/03 05:16:52;;;;;;;1.53;0.90;;;17.80;98.20;;;;;;5040739;28;20473;-80
2023/08/03 05:19:18;;;;;;;1.60;1.00;;;17.80;98.20;;;;;;5048280;28;20936;-82
2023/08/03 05:21:47;;;;;;;1.60;1.00;;;17.90;98.20;;;;;;5032058;28;20483;-80
2023/08/03 05:24:13;;;;;;;1.53;1.00;;;17.90;98.20;;;;;;5043384;28;20475;-82
2023/08/03 05:26:40;;;;;;;1.50;0.90;;;17.90;98.20;;;;;;5039233;28;20493;-80
2023/08/03 05:29:10;;;;;;;1.50;1.00;;;17.90;98.20;;;;;;5042098;28;20479;-82
2023/08/03 05:31:39;;;;;;;1.53;0.90;;;17.90;98.20;;;;;;5034972;28;20594;-82
2023/08/03 05:34:06;;;;;;;1.50;0.90;;;17.90;98.20;;;;;;5044887;28;20459;-80
2023/08/03 05:36:42;;;;;;;1.53;1.00;;;18.00;98.20;;;;;;5032218;28;20880;-82
2023/08/03 05:39:11;;;;;;;1.57;1.00;;;18.00;98.20;;;;;;5021945;28;20717;-82
2023/08/03 05:41:37;;;;;;;1.50;0.90;;;18.00;98.20;;;;;;5015300;28;20490;-83
2023/08/03 05:44:05;;;;;;;1.50;1.00;;;18.00;98.20;;;;;;5018273;28;20457;-80
2023/08/03 05:46:33;;;;;;;1.53;1.00;;;18.00;98.20;;;;;;5016421;28;20518;-79
2023/08/03 05:49:00;;;;;;;1.50;1.00;;;18.00;98.20;;;;;;5023374;28;20848;-80
2023/08/03 05:51:28;;;;;;;1.57;1.00;;;18.00;98.20;;;;;;5017804;28;20993;-78
2023/08/03 05:53:56;;;;;;;1.50;0.90;;;17.90;98.20;;;;;;5023044;28;20466;-80
2023/08/03 05:56:25;;;;;;;1.53;1.00;;;17.90;98.20;;;;;;5012576;28;20644;-79
2023/08/03 05:58:54;;;;;;;1.57;0.90;;;17.80;98.20;;;;;;5020747;28;21038;-79
2023/08/03 06:01:23;;;;;;;1.53;0.90;;;17.80;98.20;;;;;;5015641;28;20495;-79
2023/08/03 06:03:52;;;;;;;1.50;0.90;;;17.70;98.20;;;;;;5022173;28;20527;-77
2023/08/03 06:06:19;;;;;;;1.50;0.90;;;17.70;98.20;;;;;;5019933;28;20478;-79
2023/08/03 06:08:51;;;;;;;1.57;1.00;;;17.70;98.20;;;;;;5032856;28;20824;-80
2023/08/03 06:11:20;;;;;;;1.53;0.90;;;17.60;98.20;;;;;;5020674;28;20623;-78
2023/08/03 06:13:51;;;;;;;1.57;0.90;;;17.60;98.20;;;;;;5022482;28;20467;-81
2023/08/03 06:16:18;;;;;;;1.57;1.00;;;17.50;98.20;;;;;;5018013;28;20502;-79
2023/08/03 06:18:50;;;;;;;1.60;1.00;;;17.50;98.20;;;;;;5027357;28;20491;-78
2023/08/03 06:21:18;;;;;;;1.53;0.90;;;17.40;98.20;;;;;;5017092;28;20604;-81
2023/08/03 06:23:47;;;;;;;1.57;0.90;;;17.40;98.20;;;;;;5029598;28;22165;-78
2023/08/03 06:26:16;;;;;;;1.53;0.90;;;17.40;98.20;;;;;;5006751;28;20481;-78
2023/08/03 06:28:45;;;;;;;1.50;0.90;;;17.40;98.20;;;;;;5009591;28;20946;-81
2023/08/03 06:31:15;;;;;;;1.60;1.10;;;17.40;98.20;;;;;;5019628;28;20950;-77
2023/08/03 06:33:43;;;;;;;1.60;0.97;;;17.40;98.20;;;;;;5038678;28;20668;-80
2023/08/03 06:36:13;;;;;;;1.50;0.90;;;17.40;98.20;;;;;;5029799;28;20479;-79
2023/08/03 06:38:41;;;;;;;1.57;1.10;;;17.40;98.20;;;;;;5044439;28;20486;-81
2023/08/03 06:41:08;;;;;;;1.53;1.00;;;17.40;98.20;;;;;;5050336;28;20468;-81
2023/08/03 06:43:35;;;;;;;1.53;0.90;;;17.40;98.20;;;;;;5040071;28;20466;-80
2023/08/03 06:46:03;;;;;;;1.57;1.00;;;17.40;98.20;;;;;;5032900;28;20525;-80
2023/08/03 06:48:32;;;;;;;1.53;1.00;;;17.30;98.20;;;;;;5044831;28;20463;-81
2023/08/03 06:50:59;;;;;;;1.53;0.90;;;17.30;98.20;;;;;;5034843;28;20482;-80
2023/08/03 06:53:26;;;;;;;1.50;0.90;;;17.30;98.20;;;;;;5045647;28;21035;-79
2023/08/03 06:55:52;;;;;;;1.53;0.90;;;17.40;98.20;;;;;;5046700;28;20493;-78
2023/08/03 06:58:19;;;;;;;1.50;0.90;;;17.30;98.20;;;;;;5050501;28;20493;-80
2023/08/03 07:00:46;;;;;;;1.53;0.90;;;17.40;98.20;;;;;;5050742;28;20556;-82
2023/08/03 07:03:14;;;;;;;1.53;0.90;;;17.40;98.20;;;;;;5034099;28;20477;-81
2023/08/03 07:05:43;;;;;;;1.50;0.90;;;17.40;98.20;;;;;;5053838;28;21063;-81
2023/08/03 07:08:10;;;;;;;1.50;0.90;;;17.40;98.20;;;;;;5037155;28;20610;-80
2023/08/03 07:10:37;;;;;;;1.50;0.93;;;17.40;98.20;;;;;;5054231;28;20545;-80
2023/08/03 07:13:04;;;;;;;1.50;0.90;;;17.50;98.20;;;;;;5047389;28;20987;-81
2023/08/03 07:15:33;;;;;;;1.50;1.00;;;17.50;98.20;;;;;;5054774;28;20526;-80
2023/08/03 07:18:01;;;;;;;1.57;0.90;;;17.50;98.20;;;;;;5037398;28;20532;-82
2023/08/03 07:20:28;;;;;;;1.50;0.90;;;17.50;98.20;;;;;;5052437;28;20489;-81
2023/08/03 07:22:57;;;;;;;1.50;0.90;;;17.50;98.20;;;;;;5043884;28;20483;-80
2023/08/03 07:25:24;;;;;;;1.57;0.90;;;17.60;98.20;;;;;;5056743;28;20839;-81
2023/08/03 07:27:52;;;;;;;1.53;0.90;;;17.60;98.20;;;;;;5045585;28;20478;-82
2023/08/03 07:30:19;;;;;;;1.57;0.90;;;17.70;98.20;;;;;;5062690;28;20611;-83
2023/08/03 07:32:46;;;;;;;1.50;0.90;;;17.80;98.20;;;;;;5044756;28;20473;-82
2023/08/03 07:35:13;;;;;;;1.57;1.00;;;17.80;98.20;;;;;;5052393;28;20494;-82
2023/08/03 07:37:40;;;;;;;1.50;0.90;;;17.90;98.20;;;;;;5031524;28;20494;-80
2023/08/03 07:40:10;;;;;;;1.57;0.90;;;17.90;98.20;;;;;;5043139;28;20483;-81
2023/08/03 07:42:36;;;;;;;1.60;1.00;;;17.90;98.20;;;;;;5034714;28;20489;-82
2023/08/03 07:45:04;;;;;;;1.57;0.90;;;18.00;98.20;;;;;;5059728;28;20549;-82
2023/08/03 07:47:31;;;;;;;1.50;0.90;;;18.00;98.20;;;;;;5039705;28;20506;-81
2023/08/03 07:49:58;;;;;;;1.50;0.90;;;18.00;98.20;;;;;;5057640;28;20485;-82
2023/08/03 07:52:26;;;;;;;1.50;0.90;;;18.00;98.20;;;;;;5036064;28;20469;-83
2023/08/03 07:54:54;;;;;;;1.60;0.90;;;18.10;98.20;;;;;;5043928;28;20466;-80
2023/08/03 07:57:22;;;;;;;1.57;0.90;;;18.10;98.20;;;;;;5032636;28;20483;-83
2023/08/03 07:59:50;;;;;;;1.50;0.90;;;18.10;98.20;;;;;;5033656;28;20755;-82
2023/08/03 08:02:16;;;;;;;1.50;0.90;;;18.20;98.20;;;;;;5025072;28;20999;-82
2023/08/03 08:04:43;;;;;;;1.53;0.90;;;18.20;98.20;;;;;;5036563;28;20462;-82
2023/08/03 08:07:10;;;;;;;1.60;1.10;;;18.20;98.20;;;;;;5031460;28;20482;-81
2023/08/03 08:09:37;;;;;;;1.57;0.90;;;18.10;98.20;;;;;;5032772;28;20475;-81
2023/08/03 08:12:06;;;;;;;1.50;0.90;;;18.10;98.20;;;;;;5024639;28;20482;-81
2023/08/03 08:14:35;;;;;;;1.50;1.00;;;18.10;98.20;;;;;;5034385;28;20517;-82
2023/08/03 08:17:03;;;;;;;1.50;0.90;;;18.10;98.20;;;;;;5027105;28;21040;-81
2023/08/03 08:19:31;;;;;;;1.53;0.90;;;18.10;98.20;;;;;;5036734;28;20519;-79
2023/08/03 08:21:57;;;;;;;1.53;1.00;;;18.10;98.20;;;;;;5040059;28;20622;-81
2023/08/03 08:24:24;;;;;;;1.57;0.90;;;18.00;98.20;;;;;;5045094;28;20467;-80
2023/08/03 08:26:51;;;;;;;1.53;0.90;;;18.00;98.20;;;;;;5033493;28;20659;-81
2023/08/03 08:29:18;;;;;;;1.50;0.90;;;18.00;98.20;;;;;;5048163;28;20490;-80
2023/08/03 08:31:46;;;;;;;1.60;1.10;;;18.00;98.20;;;;;;5039534;28;20486;-81
2023/08/03 08:34:13;;;;;;;1.57;0.90;;;18.10;98.20;;;;;;5038841;28;20455;-81
2023/08/03 08:36:40;;;;;;;1.57;0.90;;;18.20;98.20;;;;;;5034961;28;20475;-81
2023/08/03 08:39:07;;;;;;;1.50;0.90;;;18.30;98.20;;;;;;5040873;28;20489;-81
2023/08/03 08:41:41;;;;;;;1.57;1.00;;;18.40;98.20;;;;;;5032654;28;20487;-84
2023/08/03 08:44:13;;;;;;;1.57;0.90;;;18.50;98.20;;;;;;5034946;28;20467;-81
2023/08/03 08:46:42;;;;;;;1.53;0.90;;;18.70;98.20;;;;;;5028369;28;20490;-80
2023/08/03 08:49:11;;;;;;;1.50;0.90;;;18.90;98.20;;;;;;5037687;28;20505;-81
2023/08/03 08:51:41;;;;;;;1.57;0.90;;;19.10;98.20;;;;;;5027732;28;20478;-80
2023/08/03 08:54:07;;;;;;;1.50;0.90;;;19.20;98.20;;;;;;5034358;28;20476;-83
2023/08/03 08:56:34;;;;;;;1.50;0.90;;;19.30;98.20;;;;;;5032522;28;20481;-82
2023/08/03 08:59:02;;;;;;;1.57;1.00;;;19.30;98.20;;;;;;5042098;28;20536;-82
2023/08/03 09:01:48;;;;;;;1.50;0.90;;;19.30;98.20;;;;;;5031874;28;20480;-83
2023/08/03 09:04:27;;;;;;;1.57;0.90;;;19.40;98.20;;;;;;5038991;28;20466;-81
2023/08/03 09:06:54;;;;;;;1.53;0.90;;;19.60;98.20;;;;;;5040442;28;20838;-82
2023/08/03 09:09:28;;;;;;;1.57;0.90;;;19.90;98.20;;;;;;5038268;28;20475;-84
2023/08/03 09:11:55;;;;;;;1.50;0.90;;;20.10;98.20;;;;;;5029253;28;20478;-82
2023/08/03 09:14:22;;;;;;;1.53;0.90;;;20.30;98.20;;;;;;5036905;28;20490;-81
2023/08/03 09:16:52;;;;;;;1.50;0.90;;;20.40;98.20;;;;;;5033878;28;21032;-79
2023/08/03 09:19:37;;;;;;;1.53;0.90;;;20.40;98.20;;;;;;5036844;28;20481;-81
2023/08/03 09:22:04;;;;;;;1.53;0.90;;;20.30;98.20;;;;;;5031354;28;20965;-83
2023/08/03 09:24:31;;;;;;;1.57;0.90;;;20.30;98.20;;;;;;5034247;28;20546;-81
2023/08/03 09:26:58;;;;;;;1.50;0.90;;;20.40;98.20;;;;;;5028526;28;21120;-82
2023/08/03 09:29:30;;;;;;;1.57;0.90;;;20.60;98.20;;;;;;5040209;28;20478;-82
2023/08/03 09:32:04;;;;;;;1.57;0.90;;;20.80;98.20;;;;;;5030101;28;20478;-79
2023/08/03 09:34:40;;;;;;;1.57;0.90;;;21.00;98.20;;;;;;5034260;28;20463;-82
2023/08/03 09:37:07;;;;;;;1.50;0.90;;;21.10;98.20;;;;;;5028177;28;21179;-82
2023/08/03 09:39:36;;;;;;;1.60;1.00;;;21.00;98.20;;;;;;5039260;28;20498;-83
2023/08/03 09:42:05;;;;;;;1.53;0.93;;;21.10;98.20;;;;;;5034128;28;20481;-81
2023/08/03 09:44:33;;;;;;;1.50;0.90;;;21.20;98.20;;;;;;5034726;28;20742;-81
2023/08/03 09:47:01;;;;;;;1.53;0.90;;;21.30;98.20;;;;;;5028009;28;20482;-83
2023/08/03 09:49:28;;;;;;;1.50;0.90;;;21.20;98.20;;;;;;5036599;28;21159;-81
2023/08/03 09:51:58;;;;;;;1.50;0.90;;;21.30;98.20;;;;;;5029116;28;20475;-80
2023/08/03 09:54:32;;;;;;;1.50;0.90;;;21.40;98.20;;;;;;5036995;28;20454;-83
2023/08/03 09:57:03;;;;;;;1.50;0.90;;;21.50;98.20;;;;;;5034553;28;20969;-81
2023/08/03 09:59:36;;;;;;;1.50;0.90;;;21.60;98.20;;;;;;5044569;28;20568;-81
2023/08/03 10:02:16;;;;;;;1.50;0.90;;;21.70;98.20;;;;;;5030342;28;20492;-80
2023/08/03 10:04:46;;;;;;;1.53;0.90;;;21.80;98.20;;;;;;5038704;28;20517;-82
2023/08/03 10:07:17;;;;;;;1.57;0.90;;;22.10;98.20;;;;;;5030956;28;20503;-80
2023/08/03 10:09:46;;;;;;;1.93;1.00;;;22.30;98.20;;;;;;5041581;28;20485;-82
2023/08/03 10:12:19;;;;;;;1.53;0.90;;;22.40;98.20;;;;;;5031174;28;20489;-80
2023/08/03 10:14:50;;;;;;;1.50;0.90;;;22.40;98.20;;;;;;5039016;28;21048;-80
2023/08/03 10:17:19;;;;;;;1.50;0.90;;;22.20;98.20;;;;;;5026155;28;20584;-79
2023/08/03 10:19:47;;;;;;;1.50;0.90;;;22.10;98.20;;;;;;5044794;28;20490;-81
2023/08/03 10:22:16;;;;;;;1.50;0.90;;;22.00;98.20;;;;;;5029469;28;20472;-83
2023/08/03 10:25:19;;;;;;;1.53;0.90;;;22.00;98.20;;;;;;5039597;28;20550;-80
2023/08/03 10:28:13;;;;;;;1.60;1.20;;;22.10;98.20;;;;;;5031740;28;21065;-82
2023/08/03 10:31:06;;;;;;;1.80;1.43;;;22.30;98.20;;;;;;5051016;28;20481;-81
2023/08/03 10:34:03;;;;;;;1.50;0.90;;;22.30;98.20;;;;;;5018083;28;20565;-81
2023/08/03 10:36:47;;;;;;;1.50;0.87;;;22.30;98.20;;;;;;5011151;28;21055;-81
2023/08/03 10:39:37;;;;;;;1.90;1.40;;;22.30;98.20;;;;;;5024930;28;20487;-81
2023/08/03 10:42:27;;;;;;;1.50;0.90;;;22.20;98.20;;;;;;5021130;28;20476;-82
2023/08/03 10:44:55;;;;;;;1.50;0.90;;;22.40;98.20;;;;;;5024585;28;20473;-81
2023/08/03 10:47:22;;;;;;;1.53;0.90;;;22.60;98.20;;;;;;5021935;28;20490;-81
2023/08/03 10:49:53;;;;;;;1.50;0.90;;;23.00;98.20;;;;;;5022395;28;20482;-83
2023/08/03 10:55:28;;;;;;;1.50;0.90;;;23.30;98.20;;;;;;5023310;28;20462;-82
2023/08/03 10:57:57;;;;;;;1.53;0.90;;;23.80;98.20;;;;;;5025138;28;20517;-81
2023/08/03 11:00:24;;;;;;;1.50;0.90;;;24.20;98.20;;;;;;5020251;28;20592;-79
2023/08/03 11:02:51;;;;;;;1.50;0.87;;;24.40;98.20;;;;;;5011942;28;20512;-81
2023/08/03 11:05:18;;;;;;;1.50;0.80;;;24.40;98.20;;;;;;5029490;28;20966;-84
2023/08/03 11:07:46;;;;;;;1.50;0.90;;;24.20;98.20;;;;;;5026979;28;20570;-81
2023/08/03 11:10:15;;;;;;;1.50;0.90;;;24.10;98.20;;;;;;5034856;28;20557;-81
2023/08/03 11:12:52;;;;;;;1.53;0.90;;;23.90;98.20;;;;;;5026781;28;21037;-82
2023/08/03 11:15:23;;;;;;;1.50;1.03;;;23.80;98.20;;;;;;5040573;28;20887;-80
2023/08/03 11:17:51;;;;;;;1.50;0.90;;;23.50;98.20;;;;;;5027204;28;20576;-80
2023/08/03 11:20:19;;;;;;;1.50;0.90;;;23.30;98.20;;;;;;5044817;28;20486;-82
2023/08/03 11:22:46;;;;;;;1.50;0.90;;;23.20;98.20;;;;;;5023030;28;20491;-83
2023/08/03 11:25:13;;;;;;;1.50;0.90;;;23.10;98.20;;;;;;5025896;28;20538;-81
2023/08/03 11:27:41;;;;;;;1.50;0.90;;;23.10;98.20;;;;;;5006352;28;20504;-78
2023/08/03 11:30:09;;;;;;;1.50;0.90;;;23.10;98.20;;;;;;5020979;28;20494;-81
2023/08/03 11:32:39;;;;;;;1.50;0.90;;;23.10;98.20;;;;;;5019234;28;21161;-80
2023/08/03 11:35:07;;;;;;;1.50;0.87;;;23.00;98.20;;;;;;5041425;28;20459;-81
2023/08/03 11:37:38;;;;;;;1.50;0.90;;;22.90;98.20;;;;;;5032081;28;20514;-83
2023/08/03 11:40:08;;;;;;;1.50;0.90;;;23.20;98.20;;;;;;5033355;28;20499;-81
2023/08/03 11:42:39;;;;;;;1.50;0.90;;;23.60;98.20;;;;;;5021403;28;20490;-81
2023/08/03 11:45:23;;;;;;;1.50;0.90;;;23.80;98.20;;;;;;5038519;28;21031;-81
2023/08/03 11:47:51;;;;;;;1.50;0.90;;;23.80;98.20;;;;;;5022086;28;21000;-80
2023/08/03 11:50:19;;;;;;;1.50;0.90;;;23.80;98.20;;;;;;5041222;28;20479;-81
2023/08/03 11:52:46;;;;;;;1.50;0.80;;;23.70;98.20;;;;;;5020174;28;20487;-80
2023/08/03 11:55:27;;;;;;;1.50;0.90;;;23.80;98.20;;;;;;5037609;28;20471;-82
2023/08/03 11:58:10;;;;;;;1.50;0.80;;;23.70;98.20;;;;;;5030090;28;20849;-79
2023/08/03 12:00:36;;;;;;;1.50;0.90;;;23.60;98.20;;;;;;5040407;28;20502;-82
2023/08/03 12:03:04;;;;;;;1.50;0.90;;;23.40;98.20;;;;;;5028125;28;20473;-80
2023/08/03 12:05:45;;;;;;;1.50;0.90;;;23.20;98.20;;;;;;5035116;28;20455;-80
2023/08/03 12:08:12;;;;;;;1.50;0.90;;;23.00;98.20;;;;;;5010024;28;20470;-80
2023/08/03 12:10:39;;;;;;;1.50;0.90;;;22.80;98.20;;;;;;5038465;28;20475;-80
2023/08/03 12:13:06;;;;;;;1.50;0.90;;;22.70;98.20;;;;;;5008508;28;20475;-77
2023/08/03 12:15:33;;;;;;;1.50;0.90;;;22.50;98.20;;;;;;5021633;28;20935;-79
2023/08/03 12:17:59;;;;;;;1.50;0.90;;;22.50;98.20;;;;;;5029649;28;20490;-82
2023/08/03 12:20:28;;;;;;;1.50;0.90;;;22.60;98.20;;;;;;5041613;28;20544;-81
2023/08/03 12:22:55;;;;;;;1.50;0.87;;;22.80;98.20;;;;;;5027534;28;20483;-80
2023/08/03 12:25:21;;;;;;;1.50;0.90;;;23.20;98.20;;;;;;5035375;28;20470;-81
2023/08/03 12:27:48;;;;;;;1.50;0.90;;;23.50;98.20;;;;;;5031659;28;20511;-79
2023/08/03 12:30:18;;;;;;;1.50;0.90;;;23.90;98.20;;;;;;5043729;28;20565;-80
2023/08/03 12:32:45;;;;;;;1.60;1.20;;;24.50;98.20;;;;;;5030587;28;20483;-81
2023/08/03 12:35:12;;;;;;;1.50;0.80;;;24.90;98.20;;;;;;5041522;28;20486;-83
2023/08/03 12:37:40;;;;;;;1.50;0.90;;;25.10;98.20;;;;;;5032516;28;20478;-80
2023/08/03 12:40:08;;;;;;;1.50;0.90;;;25.40;96.40;;;;;;5037130;28;21084;-84
2023/08/03 12:42:34;;;;;;;1.50;0.83;;;25.50;95.60;;;;;;5031754;28;20503;-78
2023/08/03 12:45:01;;;;;;;1.50;0.80;;;25.50;97.00;;;;;;5037017;28;20458;-79
2023/08/03 12:47:28;;;;;;;1.50;0.80;;;25.40;96.80;;;;;;5033849;28;20512;-80
2023/08/03 12:49:57;;;;;;;1.50;0.90;;;25.40;97.00;;;;;;5042405;28;20624;-79
2023/08/03 12:52:25;;;;;;;1.50;0.90;;;25.20;97.20;;;;;;5031908;28;20651;-82
2023/08/03 12:54:53;;;;;;;1.50;0.80;;;24.90;97.20;;;;;;5050446;28;20470;-80
2023/08/03 12:57:21;;;;;;;1.50;0.90;;;24.70;98.20;;;;;;5036793;28;20521;-80
2023/08/03 12:59:53;;;;;;;1.50;0.80;;;24.40;98.20;;;;;;5051758;28;20593;-82